createdAt,value
2022-09-09T00:05:10.747Z,48.2
2022-09-09T00:12:43.074Z,48.1
2022-09-09T00:20:15.391Z,48.1
2022-09-09T00:27:47.704Z,48.1
2022-09-09T00:35:20.031Z,48.0
2022-09-09T00:42:52.390Z,47.9
2022-09-09T00:50:24.708Z,47.9
2022-09-09T00:57:57.023Z,47.9
2022-09-09T01:05:29.373Z,48.0
2022-09-09T01:13:01.671Z,47.9
2022-09-09T01:20:33.985Z,48.5
2022-09-09T01:28:06.309Z,48.0
2022-09-09T01:35:38.612Z,48.1
2022-09-09T01:43:10.950Z,48.0
2022-09-09T01:50:43.289Z,48.1
2022-09-09T01:58:15.585Z,48.1
2022-09-09T02:05:47.892Z,48.0
2022-09-09T02:13:20.208Z,48.1
2022-09-09T02:20:52.518Z,48.0
2022-09-09T02:28:24.834Z,47.9
2022-09-09T02:35:57.133Z,48.1
2022-09-09T02:43:29.474Z,48.0
2022-09-09T02:51:01.785Z,47.8
2022-09-09T02:58:34.180Z,48.2
2022-09-09T03:06:06.500Z,48.2
2022-09-09T03:13:38.764Z,48.2
2022-09-09T03:21:11.041Z,48.3
2022-09-09T03:28:43.337Z,48.2
2022-09-09T03:36:15.627Z,48.1
2022-09-09T03:43:48.021Z,48.4
2022-09-09T03:51:20.310Z,48.5
2022-09-09T03:58:52.576Z,48.5
2022-09-09T04:06:24.891Z,48.4
2022-09-09T04:13:57.196Z,48.4
2022-09-09T04:15:39.413Z,48.6
2022-09-09T04:16:26.707Z,48.5
2022-09-09T04:17:14.155Z,48.5
2022-09-09T04:18:01.412Z,48.6
2022-09-09T04:18:48.677Z,48.7
2022-09-09T04:19:35.973Z,48.9
2022-09-09T04:20:23.247Z,49.2
2022-09-09T04:21:10.517Z,49.4
2022-09-09T04:21:57.793Z,49.9
2022-09-09T04:22:45.066Z,50.2
2022-09-09T04:23:32.529Z,50.4
2022-09-09T04:24:19.780Z,51.0
2022-09-09T04:25:07.087Z,50.5
2022-09-09T04:25:54.365Z,50.8
2022-09-09T04:26:41.640Z,51.1
2022-09-09T04:27:28.905Z,51.4
2022-09-09T04:28:16.237Z,51.7
2022-09-09T04:29:03.570Z,51.9
2022-09-09T04:29:50.829Z,51.9
2022-09-09T04:30:38.165Z,52.0
2022-09-09T04:31:25.924Z,52.0
2022-09-09T04:32:13.412Z,52.0
2022-09-09T04:33:00.675Z,52.1
2022-09-09T04:33:47.934Z,52.1
2022-09-09T04:34:35.249Z,52.2
2022-09-09T04:35:22.508Z,52.3
2022-09-09T04:36:09.815Z,52.3
2022-09-09T04:36:57.091Z,52.4
2022-09-09T04:37:44.357Z,52.5
2022-09-09T04:38:31.604Z,52.5
2022-09-09T04:39:18.940Z,52.7
2022-09-09T04:40:06.244Z,52.8
2022-09-09T04:40:53.573Z,52.8
2022-09-09T04:41:40.911Z,52.8
2022-09-09T04:42:28.190Z,52.8
2022-09-09T04:43:15.473Z,53.2
2022-09-09T04:44:02.777Z,53.2
2022-09-09T04:44:50.043Z,52.9
2022-09-09T04:45:37.350Z,52.8
2022-09-09T04:46:24.625Z,52.7
2022-09-09T04:47:11.939Z,52.6
2022-09-09T04:47:59.197Z,52.6
2022-09-09T04:48:46.504Z,52.6
2022-09-09T04:49:33.770Z,52.7
2022-09-09T04:50:21.033Z,52.7
2022-09-09T04:51:08.317Z,52.7
2022-09-09T04:51:55.581Z,52.5
2022-09-09T04:52:43.356Z,52.6
2022-09-09T04:53:30.617Z,52.5
2022-09-09T04:54:17.883Z,52.5
2022-09-09T04:55:05.145Z,52.7
2022-09-09T04:55:52.458Z,52.4
2022-09-09T04:56:39.723Z,52.4
2022-09-09T04:57:27.013Z,52.8
2022-09-09T04:58:14.288Z,52.3
2022-09-09T04:59:01.550Z,52.1
2022-09-09T04:59:48.816Z,52.0
2022-09-09T05:00:36.163Z,51.7
2022-09-09T05:01:23.492Z,51.6
2022-09-09T05:02:10.829Z,51.8
2022-09-09T05:02:58.160Z,51.8
2022-09-09T05:03:45.431Z,51.1
2022-09-09T05:04:32.700Z,49.8
2022-09-09T05:05:20.009Z,50.4
2022-09-09T05:06:07.293Z,51.0
2022-09-09T05:06:54.562Z,51.2
2022-09-09T05:07:41.870Z,50.9
2022-09-09T05:08:29.183Z,50.8
2022-09-09T05:09:16.480Z,50.9
2022-09-09T05:10:03.778Z,49.8
2022-09-09T05:10:51.052Z,49.8
2022-09-09T05:11:38.322Z,49.2
2022-09-09T05:12:25.630Z,48.7
2022-09-09T05:13:12.882Z,48.5
2022-09-09T05:14:00.158Z,48.9
2022-09-09T05:14:47.469Z,48.2
2022-09-09T05:15:34.740Z,47.9
2022-09-09T05:16:22.122Z,47.8
2022-09-09T05:17:09.497Z,48.0
2022-09-09T05:17:56.820Z,48.2
2022-09-09T05:18:44.312Z,47.5
2022-09-09T05:19:31.587Z,47.1
2022-09-09T05:20:19.096Z,47.4
2022-09-09T05:21:06.368Z,48.1
2022-09-09T05:21:53.671Z,48.7
2022-09-09T05:22:40.930Z,49.0
2022-09-09T05:23:28.193Z,49.1
2022-09-09T05:24:15.494Z,49.3
2022-09-09T05:25:02.756Z,49.5
2022-09-09T05:25:50.037Z,49.5
2022-09-09T05:26:37.325Z,49.4
2022-09-09T05:27:24.590Z,49.5
2022-09-09T05:28:11.875Z,49.1
2022-09-09T05:28:59.147Z,49.5
2022-09-09T05:29:46.425Z,49.5
2022-09-09T05:30:33.687Z,49.6
2022-09-09T05:31:21.058Z,49.7
2022-09-09T05:32:10.562Z,49.7
2022-09-09T05:32:59.713Z,49.7
2022-09-09T05:33:47.417Z,49.7
2022-09-09T05:34:34.690Z,49.7
2022-09-09T05:35:21.962Z,49.9
2022-09-09T05:36:09.400Z,50.0
2022-09-09T05:36:56.693Z,50.7
2022-09-09T05:37:43.956Z,50.2
2022-09-09T05:38:31.361Z,50.1
2022-09-09T05:39:18.687Z,50.0
2022-09-09T05:40:06.059Z,49.8
2022-09-09T05:40:53.372Z,49.8
2022-09-09T05:41:40.636Z,49.8
2022-09-09T05:42:27.966Z,49.6
2022-09-09T05:43:15.326Z,49.5
2022-09-09T05:44:02.608Z,49.5
2022-09-09T05:44:49.880Z,49.5
2022-09-09T05:45:37.309Z,49.5
2022-09-09T05:46:24.613Z,49.5
2022-09-09T05:47:11.934Z,49.5
2022-09-09T05:47:59.380Z,49.5
2022-09-09T05:48:46.647Z,49.5
2022-09-09T05:49:33.921Z,49.5
2022-09-09T05:50:21.364Z,49.4
2022-09-09T05:51:08.650Z,49.5
2022-09-09T05:51:55.911Z,49.5
2022-09-09T05:52:43.345Z,49.5
2022-09-09T05:53:30.676Z,49.5
2022-09-09T05:54:17.952Z,49.6
2022-09-09T05:55:05.345Z,49.6
2022-09-09T05:55:52.603Z,49.6
2022-09-09T05:56:40.393Z,49.6
2022-09-09T05:57:27.668Z,49.4
2022-09-09T05:58:15.132Z,49.4
2022-09-09T05:59:02.565Z,49.3
2022-09-09T05:59:49.834Z,49.3
2022-09-09T06:00:37.111Z,49.3
2022-09-09T06:01:24.367Z,49.5
2022-09-09T06:02:11.977Z,49.5
2022-09-09T06:02:59.381Z,49.5
2022-09-09T06:03:46.765Z,49.6
2022-09-09T06:04:34.067Z,49.6
2022-09-09T06:05:21.352Z,49.6
2022-09-09T06:06:08.654Z,49.5
2022-09-09T06:06:55.985Z,49.5
2022-09-09T06:07:43.277Z,49.4
2022-09-09T06:08:30.560Z,49.4
2022-09-09T06:09:17.870Z,49.4
2022-09-09T06:10:05.153Z,49.3
2022-09-09T06:10:52.429Z,49.3
2022-09-09T06:11:39.756Z,49.7
2022-09-09T06:12:27.022Z,49.2
2022-09-09T06:13:14.277Z,49.1
2022-09-09T06:14:01.578Z,49.0
2022-09-09T06:14:48.832Z,49.0
2022-09-09T06:15:36.108Z,48.9
2022-09-09T06:16:23.419Z,48.8
2022-09-09T06:17:10.712Z,48.8
2022-09-09T06:17:57.967Z,48.8
2022-09-09T06:18:45.276Z,48.7
2022-09-09T06:19:32.537Z,48.8
2022-09-09T06:20:19.793Z,48.8
2022-09-09T06:21:07.336Z,48.8
2022-09-09T06:21:54.604Z,48.8
2022-09-09T06:22:41.872Z,48.8
2022-09-09T06:23:29.161Z,48.9
2022-09-09T06:24:16.416Z,49.1
2022-09-09T06:25:03.696Z,49.4
2022-09-09T06:25:50.985Z,49.6
2022-09-09T06:26:38.276Z,49.8
2022-09-09T06:27:25.553Z,49.8
2022-09-09T06:28:12.853Z,49.7
2022-09-09T06:29:00.120Z,49.8
2022-09-09T06:29:47.397Z,49.6
2022-09-09T06:30:34.683Z,49.5
2022-09-09T06:31:22.208Z,49.6
2022-09-09T06:32:10.129Z,50.0
2022-09-09T06:32:57.466Z,49.4
2022-09-09T06:33:44.744Z,49.2
2022-09-09T06:34:32.035Z,49.1
2022-09-09T06:35:19.433Z,49.0
2022-09-09T06:36:06.755Z,49.0
2022-09-09T06:36:54.042Z,49.1
2022-09-09T06:37:41.460Z,49.0
2022-09-09T06:38:28.725Z,49.1
2022-09-09T06:39:16.003Z,49.1
2022-09-09T06:40:03.478Z,49.2
2022-09-09T06:40:50.973Z,49.3
2022-09-09T06:41:38.249Z,49.3
2022-09-09T06:42:25.756Z,49.3
2022-09-09T06:43:13.057Z,49.4
2022-09-09T06:44:00.314Z,49.4
2022-09-09T06:44:47.736Z,49.4
2022-09-09T06:45:35.014Z,49.4
2022-09-09T06:46:22.318Z,49.3
2022-09-09T06:47:09.695Z,49.4
2022-09-09T06:47:56.966Z,49.3
2022-09-09T06:48:44.299Z,49.1
2022-09-09T06:49:31.637Z,49.1
2022-09-09T06:50:18.932Z,49.0
2022-09-09T06:51:06.210Z,48.9
2022-09-09T06:51:54.101Z,48.8
2022-09-09T06:52:41.612Z,48.7
2022-09-09T06:53:30.819Z,48.7
2022-09-09T06:54:18.256Z,48.7
2022-09-09T06:55:05.644Z,48.7
2022-09-09T06:55:53.151Z,48.7
2022-09-09T06:56:40.448Z,48.8
2022-09-09T06:57:36.904Z,49.3
2022-09-09T06:58:25.032Z,48.8
2022-09-09T06:59:12.451Z,48.8
2022-09-09T06:59:59.725Z,48.9
2022-09-09T07:00:47.062Z,48.8
2022-09-09T07:01:34.432Z,48.7
2022-09-09T07:02:21.807Z,48.7
2022-09-09T07:03:09.147Z,48.7
2022-09-09T07:03:56.570Z,48.6
2022-09-09T07:04:43.854Z,48.6
2022-09-09T07:05:31.138Z,48.7
2022-09-09T07:06:18.951Z,48.8
2022-09-09T07:07:06.254Z,48.8
2022-09-09T07:07:53.535Z,48.9
2022-09-09T07:08:40.821Z,48.8
2022-09-09T07:09:28.312Z,48.7
2022-09-09T07:10:15.584Z,48.7
2022-09-09T07:11:02.876Z,49.1
2022-09-09T07:11:50.141Z,48.6
2022-09-09T07:12:37.409Z,48.6
2022-09-09T07:13:24.697Z,48.6
2022-09-09T07:14:11.969Z,48.7
2022-09-09T07:14:59.245Z,48.7
2022-09-09T07:15:46.577Z,48.8
2022-09-09T07:16:33.940Z,48.8
2022-09-09T07:17:21.225Z,48.9
2022-09-09T07:19:05.054Z,48.9
2022-09-09T07:19:52.405Z,48.7
2022-09-09T07:20:39.593Z,48.6
2022-09-09T07:21:26.762Z,48.5
2022-09-09T07:22:14.184Z,48.5
2022-09-09T07:23:01.335Z,48.5
2022-09-09T07:23:48.504Z,48.6
2022-09-09T07:24:35.929Z,48.6
2022-09-09T07:25:23.591Z,48.5
2022-09-09T07:26:10.813Z,48.7
2022-09-09T07:26:58.241Z,48.7
2022-09-09T07:27:45.413Z,48.8
2022-09-09T07:28:32.673Z,48.8
2022-09-09T07:29:21.185Z,48.8
2022-09-09T07:30:08.991Z,48.7
2022-09-09T07:30:56.189Z,48.7
2022-09-09T07:31:43.424Z,48.7
2022-09-09T07:32:30.624Z,48.7
2022-09-09T07:33:17.961Z,49.1
2022-09-09T07:34:05.129Z,48.6
2022-09-09T07:34:52.293Z,48.6
2022-09-09T07:35:39.622Z,48.4
2022-09-09T07:36:31.225Z,48.4
2022-09-09T07:37:20.428Z,48.3
2022-09-09T07:38:07.823Z,48.2
2022-09-09T07:38:55.035Z,48.2
2022-09-09T07:39:42.272Z,48.4
2022-09-09T07:40:29.627Z,48.4
2022-09-09T07:41:17.144Z,48.4
2022-09-09T07:42:04.364Z,48.3
2022-09-09T07:42:52.021Z,48.2
2022-09-09T07:43:39.208Z,48.3
2022-09-09T07:44:26.381Z,48.2
2022-09-09T07:45:13.804Z,48.3
2022-09-09T07:46:00.993Z,48.4
2022-09-09T07:46:48.216Z,48.4
2022-09-09T07:47:35.608Z,48.5
2022-09-09T07:48:22.824Z,48.5
2022-09-09T07:49:10.002Z,48.6
2022-09-09T07:49:57.455Z,48.6
2022-09-09T07:50:44.607Z,48.6
2022-09-09T07:51:31.749Z,48.6
2022-09-09T07:52:20.234Z,48.5
2022-09-09T07:53:07.904Z,48.5
2022-09-09T07:53:55.201Z,48.4
2022-09-09T07:54:42.356Z,48.3
2022-09-09T07:55:29.961Z,48.2
2022-09-09T07:56:17.148Z,48.3
2022-09-09T07:57:04.308Z,48.4
2022-09-09T07:57:51.488Z,48.3
2022-09-09T07:58:38.755Z,48.3
2022-09-09T07:59:26.220Z,48.3
2022-09-09T08:00:13.408Z,48.3
2022-09-09T08:01:00.707Z,48.2
2022-09-09T08:01:47.898Z,48.2
2022-09-09T08:02:35.076Z,48.4
2022-09-09T08:03:22.421Z,48.3
2022-09-09T08:04:09.649Z,48.3
2022-09-09T08:04:56.822Z,48.3
2022-09-09T08:05:44.102Z,48.2
2022-09-09T08:06:31.317Z,48.2
2022-09-09T08:07:18.480Z,48.2
2022-09-09T08:08:05.760Z,48.3
2022-09-09T08:08:52.929Z,48.2
2022-09-09T08:09:40.093Z,48.3
2022-09-09T08:10:27.424Z,48.3
2022-09-09T08:11:14.596Z,48.3
2022-09-09T08:12:01.781Z,48.3
2022-09-09T08:13:07.734Z,48.3
2022-09-09T08:13:48.067Z,48.3
2022-09-09T08:14:36.955Z,48.3
2022-09-09T08:15:24.360Z,48.3
2022-09-09T08:16:11.560Z,48.4
2022-09-09T08:16:58.735Z,48.4
2022-09-09T08:17:46.142Z,48.3
2022-09-09T08:18:33.303Z,48.4
2022-09-09T08:19:20.569Z,48.4
2022-09-09T08:20:07.965Z,48.4
2022-09-09T08:20:55.230Z,48.4
2022-09-09T08:21:42.486Z,48.4
2022-09-09T08:22:29.884Z,48.4
2022-09-09T08:23:17.159Z,48.3
2022-09-09T08:24:04.428Z,48.3
2022-09-09T08:24:51.813Z,48.3
2022-09-09T08:25:39.068Z,48.2
2022-09-09T08:26:26.326Z,48.2
2022-09-09T08:27:13.724Z,48.2
2022-09-09T08:28:00.993Z,48.2
2022-09-09T08:28:48.441Z,48.2
2022-09-09T08:29:35.726Z,48.3
2022-09-09T08:30:22.991Z,48.2
2022-09-09T08:31:10.369Z,48.3
2022-09-09T08:31:57.695Z,48.5
2022-09-09T08:32:46.027Z,48.5
2022-09-09T08:33:34.498Z,48.4
2022-09-09T08:34:21.870Z,48.3
2022-09-09T08:35:09.145Z,48.1
2022-09-09T08:35:56.407Z,47.9
2022-09-09T08:36:43.873Z,47.8
2022-09-09T08:37:31.154Z,47.7
2022-09-09T08:38:18.445Z,47.5
2022-09-09T08:39:05.841Z,47.4
2022-09-09T08:39:54.400Z,47.4
2022-09-09T08:40:41.775Z,47.7
2022-09-09T08:41:29.253Z,48.1
2022-09-09T08:42:16.513Z,48.2
2022-09-09T08:43:03.780Z,48.5
2022-09-09T08:43:51.205Z,48.8
2022-09-09T08:44:38.482Z,48.9
2022-09-09T08:45:25.801Z,49.1
2022-09-09T08:46:13.194Z,49.0
2022-09-09T08:47:00.488Z,49.0
2022-09-09T08:47:47.775Z,48.7
2022-09-09T08:48:35.185Z,48.6
2022-09-09T08:49:22.473Z,48.6
2022-09-09T08:50:09.745Z,48.5
2022-09-09T08:50:57.177Z,48.8
2022-09-09T08:51:44.436Z,49.1
2022-09-09T08:52:31.701Z,49.2
2022-09-09T08:53:19.104Z,49.1
2022-09-09T08:54:06.536Z,49.0
2022-09-09T08:54:53.817Z,48.9
2022-09-09T08:55:41.189Z,48.8
2022-09-09T08:56:28.522Z,48.6
2022-09-09T08:57:15.801Z,48.5
2022-09-09T08:58:03.204Z,48.5
2022-09-09T08:58:50.495Z,48.4
2022-09-09T08:59:37.790Z,48.6
2022-09-09T09:00:25.180Z,48.9
2022-09-09T09:01:12.527Z,49.4
2022-09-09T09:01:59.945Z,49.5
2022-09-09T09:02:47.288Z,49.7
2022-09-09T09:03:34.555Z,49.7
2022-09-09T09:04:21.833Z,49.8
2022-09-09T09:05:09.329Z,49.6
2022-09-09T09:05:56.625Z,49.6
2022-09-09T09:06:43.896Z,50.2
2022-09-09T09:07:32.971Z,50.9
2022-09-09T09:08:20.422Z,51.2
2022-09-09T09:09:07.729Z,51.2
2022-09-09T09:09:54.987Z,51.3
2022-09-09T09:10:43.033Z,51.4
2022-09-09T09:11:30.400Z,51.4
2022-09-09T09:12:17.684Z,51.4
2022-09-09T09:13:04.972Z,51.3
2022-09-09T09:13:52.248Z,51.3
2022-09-09T09:14:39.533Z,51.0
2022-09-09T09:15:29.403Z,51.0
2022-09-09T09:16:19.870Z,51.0
2022-09-09T09:17:07.158Z,51.0
2022-09-09T09:17:54.529Z,50.9
2022-09-09T09:18:41.811Z,50.8
2022-09-09T09:19:29.095Z,50.8
2022-09-09T09:20:16.384Z,50.7
2022-09-09T09:21:03.654Z,50.6
2022-09-09T09:21:50.977Z,50.5
2022-09-09T09:22:38.245Z,50.5
2022-09-09T09:23:25.669Z,50.5
2022-09-09T09:24:12.949Z,50.4
2022-09-09T09:25:00.215Z,50.2
2022-09-09T09:25:47.485Z,50.1
2022-09-09T09:26:34.861Z,50.0
2022-09-09T09:27:22.214Z,49.9
2022-09-09T09:28:09.518Z,50.3
2022-09-09T09:28:56.820Z,51.0
2022-09-09T09:30:10.102Z,51.3
2022-09-09T09:30:41.407Z,51.3
2022-09-09T09:31:28.822Z,51.2
2022-09-09T09:32:16.104Z,51.4
2022-09-09T09:33:03.391Z,50.9
2022-09-09T09:33:50.803Z,50.9
2022-09-09T09:34:38.060Z,51.5
2022-09-09T09:35:25.401Z,50.9
2022-09-09T09:36:12.764Z,50.6
2022-09-09T09:37:00.024Z,50.5
2022-09-09T09:40:39.165Z,50.1
2022-09-09T09:41:26.592Z,50.1
2022-09-09T09:42:13.867Z,50.2
2022-09-09T09:43:01.162Z,50.1
2022-09-09T09:43:48.602Z,50.1
2022-09-09T09:44:35.897Z,50.0
2022-09-09T09:45:23.177Z,50.0
2022-09-09T09:46:18.372Z,50.1
2022-09-09T09:47:05.788Z,50.4
2022-09-09T09:47:56.885Z,50.8
2022-09-09T09:48:47.870Z,51.0
2022-09-09T09:49:35.265Z,51.2
2022-09-09T09:50:22.529Z,51.4
2022-09-09T09:51:09.808Z,51.5
2022-09-09T09:51:57.262Z,51.6
2022-09-09T09:52:44.549Z,51.6
2022-09-09T09:53:31.882Z,51.5
2022-09-09T09:54:19.299Z,51.2
2022-09-09T09:55:07.832Z,51.3
2022-09-09T09:55:55.413Z,51.1
2022-09-09T09:56:42.835Z,50.8
2022-09-09T09:57:30.200Z,51.0
2022-09-09T09:58:18.621Z,51.2
2022-09-09T09:59:13.308Z,51.2
2022-09-09T10:00:03.521Z,51.2
2022-09-09T10:00:50.971Z,51.1
2022-09-09T10:01:38.313Z,50.9
2022-09-09T10:02:25.603Z,50.9
2022-09-09T10:03:13.010Z,51.0
2022-09-09T10:04:00.377Z,50.9
2022-09-09T10:04:47.747Z,50.9
2022-09-09T10:05:36.232Z,50.7
2022-09-09T10:06:23.742Z,50.5
2022-09-09T10:07:11.137Z,50.5
2022-09-09T10:07:58.417Z,50.7
2022-09-09T10:08:45.899Z,50.5
2022-09-09T10:09:33.353Z,50.4
2022-09-09T10:10:20.689Z,50.3
2022-09-09T10:11:07.956Z,50.1
2022-09-09T10:11:55.278Z,50.1
2022-09-09T10:12:42.576Z,50.0
2022-09-09T10:13:29.855Z,50.1
2022-09-09T10:14:17.200Z,50.2
2022-09-09T10:15:04.470Z,50.7
2022-09-09T10:15:51.752Z,50.0
2022-09-09T10:16:39.099Z,50.1
2022-09-09T10:17:26.377Z,50.1
2022-09-09T10:18:13.633Z,49.8
2022-09-09T10:19:00.988Z,49.6
2022-09-09T10:19:48.286Z,49.6
2022-09-09T10:27:20.575Z,49.5
2022-09-09T10:34:52.866Z,49.6
2022-09-09T10:42:25.169Z,50.2
2022-09-09T10:49:57.485Z,50.5
2022-09-09T10:53:19.736Z,51.2
2022-09-09T10:54:06.988Z,50.8
2022-09-09T10:54:54.317Z,50.8
2022-09-09T10:55:41.624Z,50.7
2022-09-09T10:56:28.910Z,50.4
2022-09-09T10:57:16.404Z,50.2
2022-09-09T10:58:03.675Z,50.1
2022-09-09T10:58:50.935Z,49.9
2022-09-09T10:59:38.264Z,49.9
2022-09-09T11:00:25.819Z,50.0
2022-09-09T11:01:13.158Z,50.0
2022-09-09T11:02:00.479Z,49.9
2022-09-09T11:02:47.910Z,49.8
2022-09-09T11:03:35.325Z,49.7
2022-09-09T11:04:22.655Z,49.5
2022-09-09T11:05:09.987Z,49.6
2022-09-09T11:05:57.350Z,49.8
2022-09-09T11:06:44.724Z,50.0
2022-09-09T11:07:32.024Z,50.1
2022-09-09T11:08:19.349Z,50.3
2022-09-09T11:09:06.750Z,50.3
2022-09-09T11:09:54.013Z,50.3
2022-09-09T11:10:41.294Z,50.2
2022-09-09T11:11:28.565Z,50.1
2022-09-09T11:12:15.880Z,50.1
2022-09-09T11:13:03.153Z,50.0
2022-09-09T11:13:50.449Z,49.9
2022-09-09T11:14:39.018Z,49.7
2022-09-09T11:15:26.509Z,49.5
2022-09-09T11:16:13.837Z,49.5
2022-09-09T11:17:01.149Z,49.5
2022-09-09T11:17:48.475Z,49.5
2022-09-09T11:18:35.767Z,49.5
2022-09-09T11:19:23.054Z,49.6
2022-09-09T11:20:10.323Z,49.6
2022-09-09T11:20:57.610Z,49.6
2022-09-09T11:21:44.885Z,49.4
2022-09-09T11:22:32.166Z,49.3
2022-09-09T11:23:19.631Z,49.3
2022-09-09T11:24:06.897Z,49.3
2022-09-09T11:24:54.174Z,49.4
2022-09-09T11:25:41.467Z,49.6
2022-09-09T11:26:28.734Z,50.0
2022-09-09T11:27:16.000Z,50.1
2022-09-09T11:28:03.401Z,50.1
2022-09-09T11:28:50.721Z,50.1
2022-09-09T11:29:38.204Z,50.1
2022-09-09T11:30:53.705Z,50.0
2022-09-09T11:31:22.823Z,50.0
2022-09-09T11:32:10.590Z,49.9
2022-09-09T11:32:57.944Z,49.8
2022-09-09T11:33:45.235Z,49.7
2022-09-09T11:34:32.646Z,49.7
2022-09-09T11:35:19.974Z,49.6
2022-09-09T11:36:08.051Z,49.5
2022-09-09T11:36:55.524Z,49.3
2022-09-09T11:37:42.927Z,49.3
2022-09-09T11:38:30.281Z,49.3
2022-09-09T11:39:17.593Z,49.0
2022-09-09T11:40:05.053Z,49.1
2022-09-09T11:40:52.349Z,49.0
2022-09-09T11:41:39.629Z,49.0
2022-09-09T11:42:27.044Z,49.0
2022-09-09T11:43:14.309Z,49.0
2022-09-09T11:44:01.581Z,49.0
2022-09-09T11:44:49.005Z,48.8
2022-09-09T11:45:36.303Z,48.8
2022-09-09T11:46:23.657Z,48.7
2022-09-09T11:47:11.029Z,48.8
2022-09-09T11:47:58.288Z,48.9
2022-09-09T11:48:45.563Z,49.2
2022-09-09T11:49:32.975Z,49.4
2022-09-09T11:50:20.270Z,49.5
2022-09-09T11:51:07.568Z,49.6
2022-09-09T11:51:54.964Z,49.6
2022-09-09T11:52:42.244Z,49.6
2022-09-09T11:53:29.509Z,49.6
2022-09-09T11:54:16.932Z,49.7
2022-09-09T11:55:04.217Z,49.6
2022-09-09T11:55:51.480Z,49.4
2022-09-09T11:56:39.022Z,49.3
2022-09-09T11:57:26.293Z,49.3
2022-09-09T11:58:13.569Z,49.3
2022-09-09T11:59:00.967Z,49.1
2022-09-09T11:59:48.702Z,49.0
2022-09-09T12:00:35.980Z,48.9
2022-09-09T12:01:23.379Z,48.8
2022-09-09T12:02:10.712Z,48.7
2022-09-09T12:02:58.034Z,48.7
2022-09-09T12:03:45.458Z,48.6
2022-09-09T12:04:32.897Z,48.7
2022-09-09T12:05:20.318Z,48.8
2022-09-09T12:06:07.649Z,48.9
2022-09-09T12:06:54.943Z,48.9
2022-09-09T12:07:42.253Z,48.9
2022-09-09T12:08:29.692Z,48.8
2022-09-09T12:09:17.000Z,48.7
2022-09-09T12:10:04.297Z,48.6
2022-09-09T12:10:51.689Z,48.7
2022-09-09T12:11:38.965Z,48.9
2022-09-09T12:12:26.228Z,49.2
2022-09-09T12:13:13.652Z,49.4
2022-09-09T12:14:00.916Z,49.6
2022-09-09T12:14:48.377Z,49.5
2022-09-09T12:15:35.830Z,49.5
2022-09-09T12:16:23.675Z,49.5
2022-09-09T12:17:11.012Z,49.6
2022-09-09T12:18:02.921Z,49.7
2022-09-09T12:18:51.013Z,49.6
2022-09-09T12:19:38.319Z,49.5
2022-09-09T12:20:25.595Z,49.6
2022-09-09T12:21:12.870Z,49.4
2022-09-09T12:22:00.304Z,49.3
2022-09-09T12:22:47.684Z,49.3
2022-09-09T12:23:35.034Z,49.0
2022-09-09T12:24:22.395Z,48.8
2022-09-09T12:25:09.677Z,48.8
2022-09-09T12:25:56.943Z,48.8
2022-09-09T12:26:44.376Z,49.0
2022-09-09T12:27:31.656Z,49.2
2022-09-09T12:28:18.918Z,49.3
2022-09-09T12:29:06.362Z,49.3
2022-09-09T12:29:53.650Z,49.4
2022-09-09T12:30:40.962Z,49.3
2022-09-09T12:31:28.283Z,49.0
2022-09-09T12:32:15.548Z,48.9
2022-09-09T12:33:02.816Z,48.7
2022-09-09T12:33:50.228Z,48.9
2022-09-09T12:34:37.644Z,49.2
2022-09-09T12:35:24.953Z,49.4
2022-09-09T12:36:12.332Z,49.5
2022-09-09T12:36:59.618Z,49.7
2022-09-09T12:37:46.938Z,49.7
2022-09-09T12:38:34.303Z,49.8
2022-09-09T12:39:21.606Z,49.9
2022-09-09T12:40:08.961Z,49.7
2022-09-09T12:40:56.309Z,49.7
2022-09-09T12:41:43.593Z,49.6
2022-09-09T12:42:30.877Z,49.6
2022-09-09T12:43:18.281Z,49.5
2022-09-09T12:44:05.571Z,49.3
2022-09-09T12:44:52.861Z,49.4
2022-09-09T12:45:40.444Z,49.6
2022-09-09T12:46:28.899Z,49.6
2022-09-09T12:47:16.390Z,49.5
2022-09-09T12:48:03.757Z,49.4
2022-09-09T12:48:51.041Z,49.2
2022-09-09T12:49:38.423Z,49.2
2022-09-09T12:50:25.723Z,49.1
2022-09-09T12:51:12.975Z,49.1
2022-09-09T12:52:00.478Z,49.3
2022-09-09T12:52:47.750Z,49.4
2022-09-09T12:53:35.027Z,49.5
2022-09-09T12:54:22.302Z,49.5
2022-09-09T12:55:09.766Z,49.5
2022-09-09T12:55:57.037Z,49.4
2022-09-09T12:56:44.300Z,49.5
2022-09-09T12:57:31.772Z,49.5
2022-09-09T12:58:19.057Z,50.0
2022-09-09T12:59:06.368Z,49.4
2022-09-09T12:59:53.784Z,49.4
2022-09-09T13:00:41.056Z,49.1
2022-09-09T13:01:28.539Z,49.0
2022-09-09T13:02:15.981Z,48.8
2022-09-09T13:03:03.339Z,48.7
2022-09-09T13:03:50.648Z,48.8
2022-09-09T13:04:38.048Z,49.0
2022-09-09T13:05:25.390Z,49.1
2022-09-09T13:06:12.744Z,49.1
2022-09-09T13:07:00.159Z,49.3
2022-09-09T13:07:47.455Z,49.1
2022-09-09T13:08:35.052Z,49.1
2022-09-09T13:09:22.394Z,49.2
2022-09-09T13:10:09.693Z,49.4
2022-09-09T13:11:01.910Z,49.3
2022-09-09T13:11:50.329Z,49.3
2022-09-09T13:12:37.741Z,49.3
2022-09-09T13:13:25.007Z,49.3
2022-09-09T13:14:12.484Z,49.1
2022-09-09T13:14:59.753Z,49.0
2022-09-09T13:15:47.036Z,49.0
2022-09-09T13:16:37.645Z,49.0
2022-09-09T13:17:27.704Z,49.1
2022-09-09T13:18:15.106Z,49.1
2022-09-09T13:19:02.410Z,49.0
2022-09-09T13:19:49.823Z,48.8
2022-09-09T13:20:37.161Z,48.7
2022-09-09T13:21:24.450Z,48.5
2022-09-09T13:22:11.744Z,48.7
2022-09-09T13:22:59.173Z,48.8
2022-09-09T13:23:46.565Z,48.7
2022-09-09T13:24:33.842Z,48.8
2022-09-09T13:25:21.277Z,49.0
2022-09-09T13:26:08.631Z,48.9
2022-09-09T13:26:55.956Z,48.9
2022-09-09T13:27:43.392Z,48.7
2022-09-09T13:28:34.001Z,48.6
2022-09-09T13:29:21.874Z,48.6
2022-09-09T13:30:09.295Z,48.8
2022-09-09T13:30:59.051Z,49.1
2022-09-09T13:31:49.818Z,49.2
2022-09-09T13:32:37.269Z,49.2
2022-09-09T13:33:24.544Z,49.2
2022-09-09T13:34:11.826Z,49.2
2022-09-09T13:34:59.245Z,49.3
2022-09-09T13:35:46.513Z,49.3
2022-09-09T13:36:33.806Z,49.1
2022-09-09T13:37:21.218Z,48.9
2022-09-09T13:38:08.510Z,48.7
2022-09-09T13:38:55.782Z,48.5
2022-09-09T13:39:43.318Z,48.4
2022-09-09T13:40:30.694Z,48.3
2022-09-09T13:41:17.997Z,48.3
2022-09-09T13:42:05.398Z,48.2
2022-09-09T13:42:52.711Z,48.5
2022-09-09T13:43:40.235Z,48.4
2022-09-09T13:44:27.533Z,48.6
2022-09-09T13:45:14.818Z,48.7
2022-09-09T13:46:02.227Z,48.6
2022-09-09T13:46:49.614Z,48.8
2022-09-09T13:47:36.953Z,48.7
2022-09-09T13:48:24.228Z,48.5
2022-09-09T13:49:11.656Z,48.6
2022-09-09T13:49:58.937Z,48.6
2022-09-09T13:50:46.204Z,48.8
2022-09-09T13:51:33.663Z,48.8
2022-09-09T13:52:20.962Z,49.0
2022-09-09T13:53:08.295Z,49.0
2022-09-09T13:53:56.338Z,48.9
2022-09-09T13:54:43.680Z,48.8
2022-09-09T13:55:30.948Z,48.7
2022-09-09T13:56:18.228Z,48.7
2022-09-09T13:57:05.538Z,48.6
2022-09-09T13:57:52.954Z,48.6
2022-09-09T13:58:40.402Z,48.5
2022-09-09T13:59:42.457Z,48.5
2022-09-09T14:00:24.982Z,48.5
2022-09-09T14:01:12.450Z,48.5
2022-09-09T14:01:59.866Z,48.7
2022-09-09T14:02:47.184Z,48.8
2022-09-09T14:03:34.587Z,48.9
2022-09-09T14:04:21.888Z,49.0
2022-09-09T14:05:09.480Z,49.1
2022-09-09T14:05:56.841Z,49.0
2022-09-09T14:06:44.162Z,48.9
2022-09-09T14:07:31.453Z,48.9
2022-09-09T14:08:18.845Z,49.0
2022-09-09T14:09:06.124Z,49.0
2022-09-09T14:09:53.725Z,49.2
2022-09-09T14:10:41.127Z,49.3
2022-09-09T14:11:28.536Z,49.2
2022-09-09T14:12:15.825Z,49.2
2022-09-09T14:13:03.242Z,49.0
2022-09-09T14:13:50.533Z,49.0
2022-09-09T14:14:37.824Z,48.9
2022-09-09T14:15:25.315Z,48.8
2022-09-09T14:16:12.640Z,48.8
2022-09-09T14:17:00.124Z,48.8
2022-09-09T14:17:47.412Z,48.9
2022-09-09T14:18:34.726Z,49.1
2022-09-09T14:19:22.042Z,49.2
2022-09-09T14:20:09.463Z,49.3
2022-09-09T14:20:56.760Z,49.2
2022-09-09T14:21:44.053Z,49.3
2022-09-09T14:22:31.473Z,49.1
2022-09-09T14:23:19.519Z,49.1
2022-09-09T14:24:06.808Z,49.2
2022-09-09T14:24:54.224Z,49.4
2022-09-09T14:25:41.492Z,49.5
2022-09-09T14:26:28.781Z,49.5
2022-09-09T14:27:16.182Z,49.5
2022-09-09T14:28:03.456Z,49.7
2022-09-09T14:28:58.414Z,49.6
2022-09-09T14:29:45.838Z,49.6
2022-09-09T14:30:33.289Z,49.4
2022-09-09T14:31:20.670Z,49.2
2022-09-09T14:32:12.079Z,49.0
2022-09-09T14:33:00.078Z,48.9
2022-09-09T14:33:47.501Z,48.7
2022-09-09T14:34:34.788Z,48.9
2022-09-09T14:35:22.131Z,49.2
2022-09-09T14:36:09.488Z,49.5
2022-09-09T14:36:56.787Z,49.6
2022-09-09T14:37:44.088Z,49.7
2022-09-09T14:38:31.499Z,49.6
2022-09-09T14:39:19.023Z,49.5
2022-09-09T14:40:06.379Z,49.4
2022-09-09T14:40:53.771Z,49.3
2022-09-09T14:41:41.058Z,49.4
2022-09-09T14:42:28.648Z,49.6
2022-09-09T14:43:15.986Z,50.0
2022-09-09T14:44:03.258Z,50.4
2022-09-09T14:44:50.540Z,50.8
2022-09-09T14:45:38.016Z,50.8
2022-09-09T14:46:25.352Z,51.2
2022-09-09T14:47:12.663Z,51.9
2022-09-09T14:48:00.090Z,51.9
2022-09-09T14:48:47.455Z,51.2
2022-09-09T14:49:34.725Z,51.0
2022-09-09T14:50:22.180Z,50.9
2022-09-09T14:51:09.545Z,51.2
2022-09-09T14:51:56.833Z,50.5
2022-09-09T14:52:44.240Z,50.4
2022-09-09T14:53:31.517Z,50.4
2022-09-09T14:54:18.820Z,50.4